Gillam, Gillam Airport (CYGX)

NameGillam Airport
CityGillam
CountryCanada
ICAOCYGX
IATAYGX
Altitude145 m
CoordinatesGoogle Map
Live Air TrafficLiveATC.net
METARCYGX 170500Z 33005KT 15SM SKC M27/M29 A3039 RMK SLP317
2019-02-17 05:00:00 Wind: Northwest (330°) 2.57 m/s - Visibility: 24140.1 m - Temperature: -27 °C - Dew point: -29 °C - Humidity: 83.1% - Pressure: 1029.12 hPa
Statistics

The table below shows the detailed information of all flights to/from Gillam, Gillam Airport (CYGX).